sensor_id;sensor_type;location;lat;lon;timestamp;pressure;altitude;pressure_sealevel;temperature;humidity
62031;BME280;62035;52.094;5.112;2023-04-28T00:02:09;101476.97;;;11.29;100.00
62031;BME280;62035;52.094;5.112;2023-04-28T00:04:37;101474.06;;;11.51;100.00
62031;BME280;62035;52.094;5.112;2023-04-28T00:07:04;101463.25;;;11.53;100.00
62031;BME280;62035;52.094;5.112;2023-04-28T00:09:34;101455.66;;;11.29;100.00
62031;BME280;62035;52.094;5.112;2023-04-28T00:12:01;101451.47;;;11.36;100.00
62031;BME280;62035;52.094;5.112;2023-04-28T00:14:29;101442.91;;;11.32;100.00
62031;BME280;62035;52.094;5.112;2023-04-28T00:16:57;101448.38;;;11.41;100.00
62031;BME280;62035;52.094;5.112;2023-04-28T00:19:24;101439.13;;;11.45;100.00
62031;BME280;62035;52.094;5.112;2023-04-28T00:21:52;101436.56;;;11.24;100.00
62031;BME280;62035;52.094;5.112;2023-04-28T00:24:19;101433.78;;;11.25;100.00
62031;BME280;62035;52.094;5.112;2023-04-28T00:26:48;101429.56;;;11.32;100.00
62031;BME280;62035;52.094;5.112;2023-04-28T00:29:16;101426.50;;;11.37;100.00
62031;BME280;62035;52.094;5.112;2023-04-28T00:31:44;101416.25;;;11.23;100.00
62031;BME280;62035;52.094;5.112;2023-04-28T00:34:11;101410.47;;;10.79;100.00
62031;BME280;62035;52.094;5.112;2023-04-28T00:36:40;101418.03;;;10.93;100.00
62031;BME280;62035;52.094;5.112;2023-04-28T00:39:07;101414.09;;;10.88;100.00
62031;BME280;62035;52.094;5.112;2023-04-28T00:41:35;101418.44;;;10.89;100.00
62031;BME280;62035;52.094;5.112;2023-04-28T00:44:04;101418.75;;;11.24;100.00
62031;BME280;62035;52.094;5.112;2023-04-28T00:46:32;101409.38;;;11.11;100.00
62031;BME280;62035;52.094;5.112;2023-04-28T00:49:00;101405.44;;;11.05;100.00
62031;BME280;62035;52.094;5.112;2023-04-28T00:51:29;101405.31;;;11.16;100.00
62031;BME280;62035;52.094;5.112;2023-04-28T00:53:58;101383.03;;;11.17;100.00
62031;BME280;62035;52.094;5.112;2023-04-28T00:56:28;101393.97;;;11.14;100.00
62031;BME280;62035;52.094;5.112;2023-04-28T00:58:56;101384.00;;;11.07;100.00
62031;BME280;62035;52.094;5.112;2023-04-28T01:01:26;101381.47;;;11.05;100.00
62031;BME280;62035;52.094;5.112;2023-04-28T01:03:53;101377.25;;;11.02;100.00
62031;BME280;62035;52.094;5.112;2023-04-28T01:06:21;101380.91;;;11.30;100.00
62031;BME280;62035;52.094;5.112;2023-04-28T01:08:49;101386.25;;;11.11;100.00
62031;BME280;62035;52.094;5.112;2023-04-28T01:11:16;101381.34;;;11.16;100.00
62031;BME280;62035;52.094;5.112;2023-04-28T01:13:44;101386.38;;;11.10;100.00
62031;BME280;62035;52.094;5.112;2023-04-28T01:16:12;101380.91;;;11.30;100.00
62031;BME280;62035;52.094;5.112;2023-04-28T01:18:45;101370.97;;;11.13;100.00
62031;BME280;62035;52.094;5.112;2023-04-28T01:21:14;101371.09;;;11.21;100.00
62031;BME280;62035;52.094;5.112;2023-04-28T01:23:55;101366.75;;;11.30;100.00
62031;BME280;62035;52.094;5.112;2023-04-28T01:26:23;101366.47;;;11.23;100.00
62031;BME280;62035;52.094;5.112;2023-04-28T01:28:51;101361.00;;;10.96;100.00
62031;BME280;62035;52.094;5.112;2023-04-28T01:31:18;101334.53;;;11.14;100.00
62031;BME280;62035;52.094;5.112;2023-04-28T01:33:46;101350.06;;;11.28;100.00
62031;BME280;62035;52.094;5.112;2023-04-28T01:36:13;101339.69;;;11.25;100.00
62031;BME280;62035;52.094;5.112;2023-04-28T01:38:41;101336.72;;;11.38;100.00
62031;BME280;62035;52.094;5.112;2023-04-28T01:41:10;101337.88;;;11.06;100.00
62031;BME280;62035;52.094;5.112;2023-04-28T01:43:38;101340.09;;;11.20;100.00
62031;BME280;62035;52.094;5.112;2023-04-28T01:46:05;101327.78;;;11.19;100.00
62031;BME280;62035;52.094;5.112;2023-04-28T01:48:33;101331.72;;;11.06;100.00
62031;BME280;62035;52.094;5.112;2023-04-28T01:51:01;101329.88;;;11.25;100.00
62031;BME280;62035;52.094;5.112;2023-04-28T01:53:28;101322.19;;;11.13;100.00
62031;BME280;62035;52.094;5.112;2023-04-28T01:55:56;101321.31;;;11.22;100.00
62031;BME280;62035;52.094;5.112;2023-04-28T01:58:25;101322.84;;;11.24;100.00
62031;BME280;62035;52.094;5.112;2023-04-28T02:00:53;101318.78;;;11.20;100.00
62031;BME280;62035;52.094;5.112;2023-04-28T02:03:20;101318.41;;;11.15;100.00
62031;BME280;62035;52.094;5.112;2023-04-28T02:05:48;101307.00;;;11.23;100.00
62031;BME280;62035;52.094;5.112;2023-04-28T02:08:16;101313.88;;;11.25;100.00
62031;BME280;62035;52.094;5.112;2023-04-28T02:10:43;101310.50;;;11.23;100.00
62031;BME280;62035;52.094;5.112;2023-04-28T02:13:11;101296.66;;;11.10;100.00
62031;BME280;62035;52.094;5.112;2023-04-28T02:15:40;101305.59;;;11.28;100.00
62031;BME280;62035;52.094;5.112;2023-04-28T02:18:08;101298.19;;;11.22;100.00
62031;BME280;62035;52.094;5.112;2023-04-28T02:20:36;101295.75;;;11.48;100.00
62031;BME280;62035;52.094;5.112;2023-04-28T02:23:03;101295.00;;;11.09;100.00
62031;BME280;62035;52.094;5.112;2023-04-28T02:25:31;101295.25;;;11.06;100.00
62031;BME280;62035;52.094;5.112;2023-04-28T02:27:59;101287.41;;;10.85;100.00
62031;BME280;62035;52.094;5.112;2023-04-28T02:30:26;101286.84;;;11.11;100.00
62031;BME280;62035;52.094;5.112;2023-04-28T02:32:55;101280.28;;;11.05;100.00
62031;BME280;62035;52.094;5.112;2023-04-28T02:35:23;101278.97;;;11.28;100.00
62031;BME280;62035;52.094;5.112;2023-04-28T02:37:50;101277.47;;;11.16;100.00
62031;BME280;62035;52.094;5.112;2023-04-28T02:40:18;101282.19;;;11.22;100.00
62031;BME280;62035;52.094;5.112;2023-04-28T02:42:46;101272.22;;;11.24;100.00
62031;BME280;62035;52.094;5.112;2023-04-28T02:45:13;101257.41;;;11.12;100.00
62031;BME280;62035;52.094;5.112;2023-04-28T02:47:41;101255.75;;;10.92;100.00
62031;BME280;62035;52.094;5.112;2023-04-28T02:50:10;101249.44;;;11.12;100.00
62031;BME280;62035;52.094;5.112;2023-04-28T02:52:38;101249.25;;;11.23;100.00
62031;BME280;62035;52.094;5.112;2023-04-28T02:55:06;101239.06;;;11.09;100.00
62031;BME280;62035;52.094;5.112;2023-04-28T02:57:34;101233.16;;;11.06;100.00
62031;BME280;62035;52.094;5.112;2023-04-28T03:00:02;101230.66;;;10.94;100.00
62031;BME280;62035;52.094;5.112;2023-04-28T03:02:30;101232.38;;;10.76;100.00
62031;BME280;62035;52.094;5.112;2023-04-28T03:04:58;101227.44;;;10.91;100.00
62031;BME280;62035;52.094;5.112;2023-04-28T03:07:26;101221.69;;;10.86;100.00
62031;BME280;62035;52.094;5.112;2023-04-28T03:09:54;101223.91;;;11.00;100.00
62031;BME280;62035;52.094;5.112;2023-04-28T03:12:22;101228.56;;;10.98;100.00
62031;BME280;62035;52.094;5.112;2023-04-28T03:14:49;101232.75;;;11.00;100.00
62031;BME280;62035;52.094;5.112;2023-04-28T03:17:17;101231.91;;;10.90;100.00
62031;BME280;62035;52.094;5.112;2023-04-28T03:19:44;101227.00;;;10.95;100.00
62031;BME280;62035;52.094;5.112;2023-04-28T03:22:12;101227.72;;;10.97;100.00
62031;BME280;62035;52.094;5.112;2023-04-28T03:24:41;101220.69;;;11.06;100.00
62031;BME280;62035;52.094;5.112;2023-04-28T03:27:08;101216.41;;;10.76;100.00
62031;BME280;62035;52.094;5.112;2023-04-28T03:29:36;101212.44;;;10.80;100.00
62031;BME280;62035;52.094;5.112;2023-04-28T03:32:04;101222.25;;;10.80;100.00
62031;BME280;62035;52.094;5.112;2023-04-28T03:34:32;101206.44;;;10.78;100.00
62031;BME280;62035;52.094;5.112;2023-04-28T03:37:00;101209.22;;;10.86;100.00
62031;BME280;62035;52.094;5.112;2023-04-28T03:39:27;101206.25;;;10.99;100.00
62031;BME280;62035;52.094;5.112;2023-04-28T03:41:57;101200.66;;;10.92;100.00
62031;BME280;62035;52.094;5.112;2023-04-28T03:44:24;101202.47;;;10.92;100.00
62031;BME280;62035;52.094;5.112;2023-04-28T03:46:52;101198.56;;;10.86;100.00
62031;BME280;62035;52.094;5.112;2023-04-28T03:49:19;101193.56;;;10.74;100.00
62031;BME280;62035;52.094;5.112;2023-04-28T03:51:47;101188.47;;;10.90;100.00
62031;BME280;62035;52.094;5.112;2023-04-28T03:54:16;101184.13;;;10.98;100.00
62031;BME280;62035;52.094;5.112;2023-04-28T03:56:44;101177.00;;;10.80;100.00
62031;BME280;62035;52.094;5.112;2023-04-28T03:59:13;101182.63;;;10.77;100.00
62031;BME280;62035;52.094;5.112;2023-04-28T04:01:41;101181.34;;;10.81;100.00
62031;BME280;62035;52.094;5.112;2023-04-28T04:04:09;101172.63;;;10.98;100.00
62031;BME280;62035;52.094;5.112;2023-04-28T04:06:36;101174.19;;;10.91;100.00
62031;BME280;62035;52.094;5.112;2023-04-28T04:09:04;101169.00;;;10.89;100.00
62031;BME280;62035;52.094;5.112;2023-04-28T04:11:31;101163.84;;;10.78;100.00
62031;BME280;62035;52.094;5.112;2023-04-28T04:13:59;101161.84;;;10.90;100.00
62031;BME280;62035;52.094;5.112;2023-04-28T04:16:28;101165.78;;;10.86;100.00
62031;BME280;62035;52.094;5.112;2023-04-28T04:18:56;101160.31;;;10.87;100.00
62031;BME280;62035;52.094;5.112;2023-04-28T04:21:23;101161.72;;;10.82;100.00
62031;BME280;62035;52.094;5.112;2023-04-28T04:23:52;101158.22;;;10.81;100.00
62031;BME280;62035;52.094;5.112;2023-04-28T04:26:20;101152.47;;;10.86;100.00
62031;BME280;62035;52.094;5.112;2023-04-28T04:28:48;101142.44;;;10.70;100.00
62031;BME280;62035;52.094;5.112;2023-04-28T04:31:16;101140.28;;;10.83;100.00
62031;BME280;62035;52.094;5.112;2023-04-28T04:33:45;101142.13;;;10.73;100.00
62031;BME280;62035;52.094;5.112;2023-04-28T04:36:13;101140.84;;;10.87;100.00
62031;BME280;62035;52.094;5.112;2023-04-28T04:38:41;101129.66;;;10.74;100.00
62031;BME280;62035;52.094;5.112;2023-04-28T04:41:08;101135.69;;;10.76;100.00
62031;BME280;62035;52.094;5.112;2023-04-28T04:43:36;101132.00;;;10.86;100.00
62031;BME280;62035;52.094;5.112;2023-04-28T04:46:04;101125.75;;;10.78;100.00
62031;BME280;62035;52.094;5.112;2023-04-28T04:48:31;101127.22;;;10.90;100.00
62031;BME280;62035;52.094;5.112;2023-04-28T04:51:01;101122.75;;;10.90;100.00
62031;BME280;62035;52.094;5.112;2023-04-28T04:53:28;101122.75;;;10.81;100.00
62031;BME280;62035;52.094;5.112;2023-04-28T04:55:56;101109.97;;;10.94;100.00
62031;BME280;62035;52.094;5.112;2023-04-28T04:58:23;101112.34;;;10.97;100.00
62031;BME280;62035;52.094;5.112;2023-04-28T05:00:51;101111.09;;;11.01;100.00
62031;BME280;62035;52.094;5.112;2023-04-28T05:03:19;101101.28;;;11.01;100.00
62031;BME280;62035;52.094;5.112;2023-04-28T05:05:46;101105.81;;;10.82;100.00
62031;BME280;62035;52.094;5.112;2023-04-28T05:08:16;101116.00;;;10.96;100.00
62031;BME280;62035;52.094;5.112;2023-04-28T05:10:43;101125.69;;;10.97;100.00
62031;BME280;62035;52.094;5.112;2023-04-28T05:13:11;101136.31;;;11.07;100.00
62031;BME280;62035;52.094;5.112;2023-04-28T05:15:38;101145.44;;;11.31;100.00
62031;BME280;62035;52.094;5.112;2023-04-28T05:18:06;101143.50;;;11.24;100.00
62031;BME280;62035;52.094;5.112;2023-04-28T05:20:36;101136.41;;;11.52;100.00
62031;BME280;62035;52.094;5.112;2023-04-28T05:23:04;101134.47;;;11.44;100.00
62031;BME280;62035;52.094;5.112;2023-04-28T05:25:33;101126.50;;;11.62;100.00
62031;BME280;62035;52.094;5.112;2023-04-28T05:28:00;101123.81;;;11.44;100.00
62031;BME280;62035;52.094;5.112;2023-04-28T05:30:32;101135.88;;;11.39;100.00
62031;BME280;62035;52.094;5.112;2023-04-28T05:33:00;101131.69;;;11.36;100.00
62031;BME280;62035;52.094;5.112;2023-04-28T05:35:28;101131.13;;;11.05;100.00
62031;BME280;62035;52.094;5.112;2023-04-28T05:37:56;101130.72;;;10.90;100.00
62031;BME280;62035;52.094;5.112;2023-04-28T05:40:24;101136.50;;;10.86;100.00
62031;BME280;62035;52.094;5.112;2023-04-28T05:42:53;101138.44;;;10.84;100.00
62031;BME280;62035;52.094;5.112;2023-04-28T05:45:21;101133.69;;;10.87;100.00
62031;BME280;62035;52.094;5.112;2023-04-28T05:47:49;101127.72;;;10.76;100.00
62031;BME280;62035;52.094;5.112;2023-04-28T05:50:16;101129.47;;;10.94;100.00
62031;BME280;62035;52.094;5.112;2023-04-28T05:52:44;101136.19;;;10.89;100.00
62031;BME280;62035;52.094;5.112;2023-04-28T05:55:11;101120.91;;;10.91;100.00
62031;BME280;62035;52.094;5.112;2023-04-28T05:57:39;101125.41;;;10.90;100.00
62031;BME280;62035;52.094;5.112;2023-04-28T06:00:09;101121.00;;;11.18;100.00
62031;BME280;62035;52.094;5.112;2023-04-28T06:02:38;101110.69;;;11.23;100.00
62031;BME280;62035;52.094;5.112;2023-04-28T06:05:06;101104.03;;;11.19;100.00
62031;BME280;62035;52.094;5.112;2023-04-28T06:07:35;101090.19;;;11.33;100.00
62031;BME280;62035;52.094;5.112;2023-04-28T06:10:04;101102.91;;;11.67;100.00
62031;BME280;62035;52.094;5.112;2023-04-28T06:12:32;101113.31;;;11.60;100.00
62031;BME280;62035;52.094;5.112;2023-04-28T06:14:59;101097.75;;;11.38;100.00
62031;BME280;62035;52.094;5.112;2023-04-28T06:17:28;101089.03;;;11.18;100.00
62031;BME280;62035;52.094;5.112;2023-04-28T06:19:57;101089.38;;;10.96;100.00
62031;BME280;62035;52.094;5.112;2023-04-28T06:22:25;101082.25;;;10.87;100.00
62031;BME280;62035;52.094;5.112;2023-04-28T06:24:52;101080.34;;;10.79;100.00
62031;BME280;62035;52.094;5.112;2023-04-28T06:27:20;101089.59;;;10.75;100.00
62031;BME280;62035;52.094;5.112;2023-04-28T06:29:48;101090.72;;;10.73;100.00
62031;BME280;62035;52.094;5.112;2023-04-28T06:32:16;101101.59;;;10.89;100.00
62031;BME280;62035;52.094;5.112;2023-04-28T06:34:45;101106.63;;;10.92;100.00
62031;BME280;62035;52.094;5.112;2023-04-28T06:37:12;101097.38;;;10.86;100.00
62031;BME280;62035;52.094;5.112;2023-04-28T06:39:40;101100.84;;;11.06;100.00
62031;BME280;62035;52.094;5.112;2023-04-28T06:42:08;101107.16;;;11.05;100.00
62031;BME280;62035;52.094;5.112;2023-04-28T06:44:35;101087.78;;;11.13;100.00
62031;BME280;62035;52.094;5.112;2023-04-28T06:47:03;101090.69;;;11.19;100.00
62031;BME280;62035;52.094;5.112;2023-04-28T06:49:31;101090.09;;;11.25;100.00
62031;BME280;62035;52.094;5.112;2023-04-28T06:52:00;101087.22;;;11.36;100.00
62031;BME280;62035;52.094;5.112;2023-04-28T06:54:27;101096.72;;;11.49;100.00
62031;BME280;62035;52.094;5.112;2023-04-28T06:56:55;101092.69;;;11.62;100.00
62031;BME280;62035;52.094;5.112;2023-04-28T06:59:23;101088.25;;;11.81;100.00
62031;BME280;62035;52.094;5.112;2023-04-28T07:01:51;101087.00;;;11.57;100.00
62031;BME280;62035;52.094;5.112;2023-04-28T07:04:18;101089.56;;;11.67;100.00
62031;BME280;62035;52.094;5.112;2023-04-28T07:06:46;101091.09;;;11.69;100.00
62031;BME280;62035;52.094;5.112;2023-04-28T07:09:15;101099.69;;;12.09;100.00
62031;BME280;62035;52.094;5.112;2023-04-28T07:11:43;101099.00;;;12.24;100.00
62031;BME280;62035;52.094;5.112;2023-04-28T07:14:11;101083.41;;;11.94;100.00
62031;BME280;62035;52.094;5.112;2023-04-28T07:16:38;101100.16;;;12.22;100.00
62031;BME280;62035;52.094;5.112;2023-04-28T07:19:06;101097.72;;;12.28;100.00
62031;BME280;62035;52.094;5.112;2023-04-28T07:21:34;101087.03;;;12.11;100.00
62031;BME280;62035;52.094;5.112;2023-04-28T07:24:01;101090.69;;;12.27;100.00
62031;BME280;62035;52.094;5.112;2023-04-28T07:26:32;101089.09;;;12.60;100.00
62031;BME280;62035;52.094;5.112;2023-04-28T07:29:00;101082.97;;;12.68;100.00
62031;BME280;62035;52.094;5.112;2023-04-28T07:31:27;101088.16;;;12.69;100.00
62031;BME280;62035;52.094;5.112;2023-04-28T07:33:55;101083.78;;;12.94;100.00
62031;BME280;62035;52.094;5.112;2023-04-28T07:36:23;101081.28;;;12.93;100.00
62031;BME280;62035;52.094;5.112;2023-04-28T07:38:51;101085.03;;;13.08;100.00
62031;BME280;62035;52.094;5.112;2023-04-28T07:41:18;101081.28;;;12.93;100.00
62031;BME280;62035;52.094;5.112;2023-04-28T07:43:47;101088.66;;;12.99;100.00
62031;BME280;62035;52.094;5.112;2023-04-28T07:46:15;101083.38;;;12.81;100.00
62031;BME280;62035;52.094;5.112;2023-04-28T07:48:42;101084.81;;;12.67;100.00
62031;BME280;62035;52.094;5.112;2023-04-28T07:51:10;101088.41;;;12.58;100.00
62031;BME280;62035;52.094;5.112;2023-04-28T07:53:38;101091.66;;;12.96;100.00
62031;BME280;62035;52.094;5.112;2023-04-28T07:56:05;101092.81;;;12.67;100.00
62031;BME280;62035;52.094;5.112;2023-04-28T07:58:33;101107.25;;;12.57;100.00
62031;BME280;62035;52.094;5.112;2023-04-28T08:01:02;101103.19;;;12.71;100.00
62031;BME280;62035;52.094;5.112;2023-04-28T08:03:30;101096.25;;;12.16;100.00
62031;BME280;62035;52.094;5.112;2023-04-28T08:05:57;101097.94;;;12.35;100.00
62031;BME280;62035;52.094;5.112;2023-04-28T08:08:25;101104.31;;;12.42;100.00
62031;BME280;62035;52.094;5.112;2023-04-28T08:10:53;101103.03;;;12.11;100.00
62031;BME280;62035;52.094;5.112;2023-04-28T08:13:20;101105.56;;;12.12;100.00
62031;BME280;62035;52.094;5.112;2023-04-28T08:15:48;101103.34;;;12.25;100.00
62031;BME280;62035;52.094;5.112;2023-04-28T08:18:17;101103.88;;;12.29;100.00
62031;BME280;62035;52.094;5.112;2023-04-28T08:20:45;101109.56;;;12.52;100.00
62031;BME280;62035;52.094;5.112;2023-04-28T08:23:12;101102.22;;;12.80;100.00
62031;BME280;62035;52.094;5.112;2023-04-28T08:25:41;101115.25;;;12.75;100.00
62031;BME280;62035;52.094;5.112;2023-04-28T08:28:09;101098.56;;;12.81;100.00
62031;BME280;62035;52.094;5.112;2023-04-28T08:30:36;101079.63;;;12.66;100.00
62031;BME280;62035;52.094;5.112;2023-04-28T08:33:04;101108.47;;;12.62;100.00
62031;BME280;62035;52.094;5.112;2023-04-28T08:35:33;101119.84;;;12.64;100.00
62031;BME280;62035;52.094;5.112;2023-04-28T08:38:00;101109.91;;;12.75;100.00
62031;BME280;62035;52.094;5.112;2023-04-28T08:40:29;101110.09;;;12.55;100.00
62031;BME280;62035;52.094;5.112;2023-04-28T08:42:58;101121.13;;;12.60;100.00
62031;BME280;62035;52.094;5.112;2023-04-28T08:45:28;101115.91;;;13.02;100.00
62031;BME280;62035;52.094;5.112;2023-04-28T08:47:57;101117.47;;;13.13;100.00
62031;BME280;62035;52.094;5.112;2023-04-28T08:50:29;101119.09;;;13.06;100.00
62031;BME280;62035;52.094;5.112;2023-04-28T08:53:01;101114.59;;;13.07;100.00
62031;BME280;62035;52.094;5.112;2023-04-28T08:55:30;101122.13;;;13.11;100.00
62031;BME280;62035;52.094;5.112;2023-04-28T08:58:00;101113.19;;;13.20;100.00
62031;BME280;62035;52.094;5.112;2023-04-28T09:00:29;101109.88;;;13.00;100.00
62031;BME280;62035;52.094;5.112;2023-04-28T09:02:57;101106.84;;;13.21;100.00
62031;BME280;62035;52.094;5.112;2023-04-28T09:05:25;101107.50;;;13.23;100.00
62031;BME280;62035;52.094;5.112;2023-04-28T09:07:52;101101.22;;;13.32;100.00
62031;BME280;62035;52.094;5.112;2023-04-28T09:10:23;101109.03;;;13.26;100.00
62031;BME280;62035;52.094;5.112;2023-04-28T09:12:53;101107.66;;;13.64;100.00
62031;BME280;62035;52.094;5.112;2023-04-28T09:15:27;101110.19;;;13.65;100.00
62031;BME280;62035;52.094;5.112;2023-04-28T09:17:56;101102.84;;;13.76;100.00
62031;BME280;62035;52.094;5.112;2023-04-28T09:20:25;101111.16;;;13.48;100.00
62031;BME280;62035;52.094;5.112;2023-04-28T09:22:55;101110.03;;;13.59;100.00
62031;BME280;62035;52.094;5.112;2023-04-28T09:25:39;101108.59;;;13.39;100.00
62031;BME280;62035;52.094;5.112;2023-04-28T09:28:19;101109.94;;;13.43;100.00
62031;BME280;62035;52.094;5.112;2023-04-28T09:30:47;101112.00;;;13.65;100.00
62031;BME280;62035;52.094;5.112;2023-04-28T09:33:15;101113.56;;;13.33;100.00
62031;BME280;62035;52.094;5.112;2023-04-28T09:35:43;101112.69;;;13.59;100.00
62031;BME280;62035;52.094;5.112;2023-04-28T09:38:12;101106.00;;;13.63;100.00
62031;BME280;62035;52.094;5.112;2023-04-28T09:40:53;101106.91;;;14.04;100.00
62031;BME280;62035;52.094;5.112;2023-04-28T09:43:24;101103.44;;;14.20;100.00
62031;BME280;62035;52.094;5.112;2023-04-28T09:45:54;101101.94;;;14.33;100.00
62031;BME280;62035;52.094;5.112;2023-04-28T09:48:27;101106.75;;;14.06;100.00
62031;BME280;62035;52.094;5.112;2023-04-28T09:50:56;101112.13;;;14.14;100.00
62031;BME280;62035;52.094;5.112;2023-04-28T09:53:25;101092.06;;;14.26;100.00
62031;BME280;62035;52.094;5.112;2023-04-28T09:55:56;101095.25;;;14.38;100.00
62031;BME280;62035;52.094;5.112;2023-04-28T09:58:26;101094.75;;;14.75;100.00
62031;BME280;62035;52.094;5.112;2023-04-28T10:00:58;101097.66;;;15.04;100.00
62031;BME280;62035;52.094;5.112;2023-04-28T10:03:27;101084.13;;;14.89;100.00
62031;BME280;62035;52.094;5.112;2023-04-28T10:05:57;101082.75;;;15.10;100.00
62031;BME280;62035;52.094;5.112;2023-04-28T10:08:26;101088.31;;;15.00;100.00
62031;BME280;62035;52.094;5.112;2023-04-28T10:10:56;101087.50;;;15.30;100.00
62031;BME280;62035;52.094;5.112;2023-04-28T10:13:24;101091.84;;;14.84;100.00
62031;BME280;62035;52.094;5.112;2023-04-28T10:15:52;101090.88;;;14.77;100.00
62031;BME280;62035;52.094;5.112;2023-04-28T10:18:21;101087.66;;;14.82;100.00
62031;BME280;62035;52.094;5.112;2023-04-28T10:20:58;101077.59;;;14.92;100.00
62031;BME280;62035;52.094;5.112;2023-04-28T10:27:04;101086.75;;;15.14;100.00
62031;BME280;62035;52.094;5.112;2023-04-28T10:29:34;101084.94;;;15.06;100.00
62031;BME280;62035;52.094;5.112;2023-04-28T10:32:16;101086.03;;;14.56;100.00
62031;BME280;62035;52.094;5.112;2023-04-28T10:34:48;101090.06;;;14.68;100.00
62031;BME280;62035;52.094;5.112;2023-04-28T10:37:16;101093.38;;;14.79;100.00
62031;BME280;62035;52.094;5.112;2023-04-28T10:43:01;101090.63;;;15.03;100.00
62031;BME280;62035;52.094;5.112;2023-04-28T10:46:03;101099.25;;;14.58;100.00
62031;BME280;62035;52.094;5.112;2023-04-28T10:48:54;101097.59;;;14.49;100.00
62031;BME280;62035;52.094;5.112;2023-04-28T10:51:27;101096.09;;;14.54;100.00
62031;BME280;62035;52.094;5.112;2023-04-28T10:54:16;101113.81;;;14.72;100.00
62031;BME280;62035;52.094;5.112;2023-04-28T10:57:19;101102.72;;;14.83;100.00
62031;BME280;62035;52.094;5.112;2023-04-28T10:59:49;101105.38;;;14.99;100.00
62031;BME280;62035;52.094;5.112;2023-04-28T11:02:37;101097.69;;;14.96;100.00
62031;BME280;62035;52.094;5.112;2023-04-28T11:05:11;101084.97;;;14.90;100.00
62031;BME280;62035;52.094;5.112;2023-04-28T11:07:40;101103.69;;;15.14;100.00
62031;BME280;62035;52.094;5.112;2023-04-28T11:10:07;101099.16;;;15.15;100.00
62031;BME280;62035;52.094;5.112;2023-04-28T11:12:35;101092.25;;;15.20;100.00
62031;BME280;62035;52.094;5.112;2023-04-28T11:15:12;101094.06;;;15.28;100.00
62031;BME280;62035;52.094;5.112;2023-04-28T11:17:40;101085.75;;;15.15;100.00
62031;BME280;62035;52.094;5.112;2023-04-28T11:20:11;101086.59;;;15.07;100.00
62031;BME280;62035;52.094;5.112;2023-04-28T11:22:40;101079.16;;;15.25;100.00
62031;BME280;62035;52.094;5.112;2023-04-28T11:25:08;101085.25;;;15.58;100.00
62031;BME280;62035;52.094;5.112;2023-04-28T11:27:36;101075.63;;;15.95;100.00
62031;BME280;62035;52.094;5.112;2023-04-28T11:30:20;101083.59;;;16.03;100.00
62031;BME280;62035;52.094;5.112;2023-04-28T11:32:50;101080.97;;;15.72;100.00
62031;BME280;62035;52.094;5.112;2023-04-28T11:35:18;101077.03;;;15.83;100.00
62031;BME280;62035;52.094;5.112;2023-04-28T11:37:45;101070.72;;;15.76;100.00
62031;BME280;62035;52.094;5.112;2023-04-28T11:40:27;101072.25;;;15.70;100.00
62031;BME280;62035;52.094;5.112;2023-04-28T11:42:55;101068.94;;;15.60;100.00
62031;BME280;62035;52.094;5.112;2023-04-28T11:45:25;101086.50;;;15.31;100.00
62031;BME280;62035;52.094;5.112;2023-04-28T11:47:53;101084.25;;;15.12;100.00
62031;BME280;62035;52.094;5.112;2023-04-28T11:50:34;101097.81;;;15.19;100.00
62031;BME280;62035;52.094;5.112;2023-04-28T11:53:02;101096.31;;;15.16;100.00
62031;BME280;62035;52.094;5.112;2023-04-28T11:55:30;101093.00;;;14.98;100.00
62031;BME280;62035;52.094;5.112;2023-04-28T11:58:18;101096.03;;;14.87;100.00
62031;BME280;62035;52.094;5.112;2023-04-28T12:01:08;101102.34;;;15.18;100.00
62031;BME280;62035;52.094;5.112;2023-04-28T12:03:42;101093.31;;;15.11;100.00
62031;BME280;62035;52.094;5.112;2023-04-28T12:06:11;101089.47;;;15.06;100.00
62031;BME280;62035;52.094;5.112;2023-04-28T12:08:43;101107.88;;;15.09;100.00
62031;BME280;62035;52.094;5.112;2023-04-28T12:11:12;101097.22;;;15.31;100.00
62031;BME280;62035;52.094;5.112;2023-04-28T12:13:40;101086.31;;;15.41;100.00
62031;BME280;62035;52.094;5.112;2023-04-28T12:16:09;101104.34;;;15.55;100.00
62031;BME280;62035;52.094;5.112;2023-04-28T12:18:57;101105.63;;;15.28;100.00
62031;BME280;62035;52.094;5.112;2023-04-28T12:21:25;101110.00;;;15.21;100.00
62031;BME280;62035;52.094;5.112;2023-04-28T12:23:53;101100.94;;;15.22;100.00
62031;BME280;62035;52.094;5.112;2023-04-28T12:26:23;101106.31;;;15.22;100.00
62031;BME280;62035;52.094;5.112;2023-04-28T12:28:51;101093.91;;;15.21;100.00
62031;BME280;62035;52.094;5.112;2023-04-28T12:31:21;101109.22;;;15.52;100.00
62031;BME280;62035;52.094;5.112;2023-04-28T12:33:48;101104.66;;;15.60;100.00
62031;BME280;62035;52.094;5.112;2023-04-28T12:36:16;101114.00;;;15.73;100.00
62031;BME280;62035;52.094;5.112;2023-04-28T12:38:46;101119.47;;;15.87;100.00
62031;BME280;62035;52.094;5.112;2023-04-28T12:41:14;101108.38;;;15.51;100.00
62031;BME280;62035;52.094;5.112;2023-04-28T12:43:42;101112.72;;;15.60;100.00
62031;BME280;62035;52.094;5.112;2023-04-28T12:46:10;101116.38;;;15.67;100.00
62031;BME280;62035;52.094;5.112;2023-04-28T12:48:41;101106.91;;;15.80;100.00
62031;BME280;62035;52.094;5.112;2023-04-28T12:51:08;101107.00;;;15.94;100.00
62031;BME280;62035;52.094;5.112;2023-04-28T12:53:36;101111.63;;;16.00;100.00
62031;BME280;62035;52.094;5.112;2023-04-28T12:56:04;101117.47;;;16.04;100.00
62031;BME280;62035;52.094;5.112;2023-04-28T12:58:32;101118.28;;;16.13;100.00